Flight Track Log - Related Links

Times and Time Zones

All times are in EDT time to prevent confusion due to time zone crossing. See the N762NC flight status page for this flight to view local times or setup timezone preferences in your user account.

Time Position Orientation Groundspeed Altitude Reporting Facility
EDT Latitude Longitude Course Direction KTS MPH feet Rate Location/Type
Wed 03:31:24 PM 35.7119 -84.0567 111° Southeast 229 264 4,400  Level Atlanta Center
Wed 03:32:24 PM 35.6431 -84.0517 177° South 240 276 6,200 2,050 Climbing Atlanta Center
Wed 03:33:00 PM 35.5094 -84.0556 151° Southeast  Level Estimated
Wed 03:33:24 PM 35.5764 -84.0158 156° South 255 293 8,500  Level Atlanta Center
Wed 03:34:00 PM 35.4908 -83.9646 104° East  Level FlightAware Approximate
Wed 03:34:24 PM 35.5056 -83.9647 150° Southeast 265 305 9,800  Level Atlanta Center
Wed 03:35:00 PM 35.4160 -83.9837 149° Southeast  Level Estimated
Wed 03:35:24 PM 35.4283 -83.9089 149° Southeast 298 343 10,200  Level Atlanta Center
Wed 03:36:00 PM 35.3886 -83.8961 111° Southeast  Level FlightAware Approximate
Wed 03:36:24 PM 35.3425 -83.8400 147° Southeast 340 391 12,600  Level Atlanta Center
Wed 03:37:24 PM 35.2839 -83.7258 122° Southeast 367 422 15,100 2,900 Climbing Atlanta Center
Wed 03:38:24 PM 35.2419 -83.6064 113° Southeast 372 428 18,400 2,400 Climbing Atlanta Center
Wed 03:39:24 PM 35.2058 -83.4922 111° Southeast 367 422 19,900 800 Climbing Atlanta Center
Wed 03:40:24 PM 35.1386 -83.4064 134° Southeast 351 404 20,000 50 Climbing Atlanta Center
Wed 03:41:24 PM 35.0447 -83.3689 162° South 338 389 20,000  Level Atlanta Center
Wed 03:42:24 PM 34.9506 -83.3419 167° South 338 389 20,000  Level Atlanta Center
Wed 03:43:24 PM 34.8586 -83.3225 170° South 338 389 20,000  Level Atlanta Center
Wed 03:44:24 PM 34.7625 -83.3006 169° South 344 396 20,000  Level Atlanta Center
Wed 03:45:24 PM 34.6686 -83.2989 179° South 349 402 20,000  Level Atlanta Center
Wed 03:46:24 PM 34.5919 -83.3853 223° Southwest 320 368 20,000  Level Atlanta Center
Wed 03:47:24 PM 34.5067 -83.4642 217° Southwest 367 422 20,000 -50 Level Atlanta Center
Wed 03:48:24 PM 34.4131 -83.5378 213° Southwest 402 463 19,900 -200 Descending Atlanta Center
Wed 03:49:24 PM 34.3278 -83.6061 213° Southwest 409 471 19,600 -1,150 Descending Atlanta Center
Wed 03:50:24 PM 34.2486 -83.6744 216° Southwest 389 448 17,600 -2,100 Descending Atlanta Center
Wed 03:51:24 PM 34.1800 -83.7425 219° Southwest 345 397 15,400 -1,650 Descending Atlanta Center
Wed 03:52:24 PM 34.1175 -83.8056 220° Southwest 321 369 14,300 -650 Descending Atlanta Center
Wed 03:53:24 PM 34.0592 -83.8883 230° Southwest 313 360 14,100 -100 Descending Atlanta Center
Wed 03:54:24 PM 34.0072 -83.9661 231° Southwest 313 360 14,100 -700 Level Atlanta Center
Wed 03:55:24 PM 33.9425 -84.0414 224° Southwest 301 346 12,700 -1,050 Descending Atlanta Center
Wed 03:56:24 PM 33.8819 -84.1064 222° Southwest 294 338 12,000 -300 Descending Atlanta Center
Wed 03:57:24 PM 33.8192 -84.1614 216° Southwest 289 333 12,100 50 Climbing Atlanta Center
Wed 03:58:24 PM 33.7483 -84.2111 210° Southwest 289 333 12,100 -100 Level Atlanta Center
Wed 03:59:24 PM 33.7189 -84.2936 247° West 273 314 11,900 -900 Descending Atlanta Center
Wed 04:00:24 PM 33.7292 -84.3886 277° West 263 303 10,300 -1,200 Descending Atlanta Center
Wed 04:01:39 PM 33.7500 -84.5000 283° West 252 290 9,200 -1,111 Descending Atlanta TRACON
Wed 04:02:39 PM 33.7500 -84.5833 270° West 234 269 7,800 -1,316 Descending Atlanta TRACON
Wed 04:03:33 PM 33.7500 -84.6500 270° West 235 270 6,700 -1,211 Descending Atlanta TRACON
Wed 04:04:33 PM 33.7500 -84.7167 270° West 231 266 5,500 -900 Descending Atlanta TRACON
Wed 04:05:33 PM 33.7500 -84.8000 270° West 235 270 4,900 -250 Descending Atlanta TRACON
Wed 04:06:33 PM 33.7333 -84.8667 253° West 223 257 5,000 50 Climbing Atlanta TRACON
Wed 04:07:33 PM 33.6833 -84.8833 196° South 192 221 5,000  Level Atlanta TRACON
Wed 04:08:39 PM 33.6500 -84.8333 129° Southeast 204 235 5,000  Level Atlanta TRACON
Wed 04:09:39 PM 33.6500 -84.7667 90° East 204 235 5,000  Level Atlanta TRACON
Wed 04:10:33 PM 33.6500 -84.7000 90° East 201 231 5,000 -545 Level Atlanta TRACON
Wed 04:11:40 PM 33.6500 -84.6333 90° East 211 243 3,900 -1,000 Descending Atlanta TRACON
Wed 04:12:39 PM 33.6500 -84.5667 90° East 194 223 2,900 -947 Descending Atlanta TRACON
Wed 04:13:34 PM 33.6500 -84.5000 90° East 166 191 2,100 -835 Descending Atlanta TRACON
Wed 04:14:34 PM 33.6500 -84.4667 90° East 145 167 1,300 -800 Descending Atlanta TRACON

Login

Don't have an account? Register now (free) for customized features, flight alerts, and more!